Time;durP1;ratioP1;P1;durP2;ratioP2;P2;SDS_P1;SDS_P2;PMS_P1;PMS_P2;Temp;Humidity;BMP_temperature;BMP_pressure;BME280_temperature;BME280_humidity;BME280_pressure;Samples;Min_cycle;Max_cycle;Signal;HPM_P1;HPM_P2
2022/01/22 00:00:57;;;;;;;;;7.00;6.20;;;;;4.87;88.42;101341.09;5128892;27;8939;-64
2022/01/22 00:03:25;;;;;;;;;9.00;8.20;;;;;4.89;88.36;101341.91;5130024;27;8983;-63
2022/01/22 00:05:53;;;;;;;;;9.40;9.00;;;;;4.89;87.99;101339.28;5129732;27;8856;-61
2022/01/22 00:08:21;;;;;;;;;8.20;5.20;;;;;4.88;88.56;101342.81;5107569;28;8836;-62
2022/01/22 00:10:50;;;;;;;;;7.00;5.60;;;;;4.87;87.78;101350.81;5106501;28;8852;-65
2022/01/22 00:16:04;;;;;;;;;6.20;6.20;;;;;4.87;87.95;101340.25;5108368;27;8851;-63
2022/01/22 00:18:32;;;;;;;;;4.40;4.40;;;;;4.86;88.36;101349.06;5108889;28;8840;-63
2022/01/22 00:20:59;;;;;;;;;6.80;6.60;;;;;4.87;88.40;101356.06;5109775;28;8860;-63
2022/01/22 00:23:28;;;;;;;;;2.60;1.00;;;;;4.86;88.63;101355.19;5109379;28;8840;-63
2022/01/22 00:25:56;;;;;;;;;3.80;3.00;;;;;4.86;88.05;101349.06;5108285;27;9522;-62
2022/01/22 00:28:24;;;;;;;;;6.00;6.00;;;;;4.86;88.50;101352.56;5107878;28;8859;-62
2022/01/22 00:30:51;;;;;;;;;5.60;4.00;;;;;4.85;88.32;101352.59;5109575;28;8917;-63
2022/01/22 00:33:19;;;;;;;;;11.60;9.60;;;;;4.86;88.69;101349.06;5107757;28;9775;-63
2022/01/22 00:35:48;;;;;;;;;10.80;8.80;;;;;4.86;88.92;101341.16;5108670;28;8847;-61
2022/01/22 00:38:15;;;;;;;;;10.80;9.80;;;;;4.85;88.14;101334.13;5108571;28;8819;-64
2022/01/22 00:40:50;;;;;;;;;8.40;8.20;;;;;4.84;88.48;101335.94;5108323;28;8844;-61
2022/01/22 00:43:17;;;;;;;;;6.20;4.80;;;;;4.86;88.72;101333.25;5108875;28;8878;-62
2022/01/22 00:45:45;;;;;;;;;10.00;6.80;;;;;4.85;88.57;101332.38;5108212;28;8917;-63
2022/01/22 00:48:13;;;;;;;;;6.00;4.00;;;;;4.86;87.88;101333.25;5125488;27;8826;-64
2022/01/22 00:50:41;;;;;;;;;8.60;7.00;;;;;4.84;88.33;101333.28;5129414;27;8902;-62
2022/01/22 00:53:08;;;;;;;;;4.80;4.80;;;;;4.84;88.15;101325.38;5129178;27;8834;-63
2022/01/22 00:55:36;;;;;;;;;6.80;6.40;;;;;4.85;88.44;101331.50;5129803;27;8838;-63
2022/01/22 00:58:03;;;;;;;;;7.80;7.00;;;;;4.85;88.59;101332.38;5110978;28;8820;-62
2022/01/22 01:00:31;;;;;;;;;3.80;3.20;;;;;4.85;88.16;101335.00;5108604;28;8867;-65
2022/01/22 01:02:59;;;;;;;;;4.80;3.60;;;;;4.84;88.59;101332.41;5108527;28;8832;-63
2022/01/22 01:05:27;;;;;;;;;6.00;6.00;;;;;4.86;88.70;101327.97;5112710;28;8851;-63
2022/01/22 01:07:56;;;;;;;;;9.60;9.60;;;;;4.86;88.45;101333.25;5128215;27;8881;-62
2022/01/22 01:10:23;;;;;;;;;4.60;4.60;;;;;4.85;88.21;101328.84;5132626;27;8845;-63
2022/01/22 01:12:52;;;;;;;;;8.20;6.60;;;;;4.85;88.57;101326.22;5132450;27;8837;-64
2022/01/22 01:15:35;;;;;;;;;7.80;6.60;;;;;4.86;88.38;101327.97;5132804;27;8830;-61
2022/01/22 01:32:10;;;;;;;;;9.20;9.20;;;;;4.85;88.09;101326.22;5116213;27;8974;-63
2022/01/22 01:34:55;;;;;;;;;7.00;7.00;;;;;4.84;88.34;101324.50;5067608;28;8852;-62
2022/01/22 01:37:24;;;;;;;;;9.00;7.00;;;;;4.84;88.64;101337.69;5068017;28;8856;-61
2022/01/22 01:39:58;;;;;;;;;7.00;6.00;;;;;4.83;88.55;101342.13;5097620;27;8942;-64
2022/01/22 01:42:33;;;;;;;;;7.20;7.20;;;;;4.83;88.65;101336.84;5130076;27;8842;-60
2022/01/22 01:45:01;;;;;;;;;6.20;6.00;;;;;4.83;88.32;101342.13;5129790;27;8837;-63
2022/01/22 01:47:29;;;;;;;;;5.20;4.80;;;;;4.84;88.24;101335.06;5129906;27;8873;-63
2022/01/22 01:49:57;;;;;;;;;11.20;8.20;;;;;4.84;88.71;101338.56;5129059;27;8856;-63
2022/01/22 01:52:33;;;;;;;;;9.60;8.20;;;;;4.85;88.29;101336.78;5130907;27;8849;-61
2022/01/22 01:55:04;;;;;;;;;9.00;9.00;;;;;4.84;88.86;101338.56;5129962;27;9267;-64
2022/01/22 01:57:38;;;;;;;;;4.80;4.80;;;;;4.85;88.74;101336.78;5111233;28;8843;-63
2022/01/22 02:00:06;;;;;;;;;9.60;8.60;;;;;4.85;88.69;101336.78;5109845;28;9363;-61
2022/01/22 02:02:35;;;;;;;;;10.40;9.20;;;;;4.85;88.62;101342.03;5110820;28;8835;-66
2022/01/22 02:05:02;;;;;;;;;6.00;6.00;;;;;4.86;88.42;101343.81;5111159;27;8862;-64
2022/01/22 02:07:30;;;;;;;;;7.60;7.00;;;;;4.85;88.62;101349.97;5131500;27;8837;-61
2022/01/22 02:09:59;;;;;;;;;3.00;1.00;;;;;4.85;88.96;101342.03;5130995;27;8829;-62
2022/01/22 02:12:47;;;;;;;;;4.80;4.80;;;;;4.85;88.62;101349.97;5130656;27;8834;-62
2022/01/22 02:23:37;;;;;;;;;9.40;8.60;;;;;4.83;88.55;101328.94;5109430;28;8924;-62
2022/01/22 02:26:05;;;;;;;;;9.20;4.00;;;;;4.83;88.83;101328.94;5119395;27;8822;-62
2022/01/22 02:28:33;;;;;;;;;7.00;6.80;;;;;4.82;88.54;101321.94;5132023;27;8846;-65
2022/01/22 02:31:08;;;;;;;;;7.80;7.80;;;;;4.82;88.51;101326.34;5130636;27;8837;-62
2022/01/22 02:33:42;;;;;;;;;6.00;5.60;;;;;4.81;89.02;101325.50;5130702;27;8842;-62
2022/01/22 02:36:18;;;;;;;;;10.20;9.00;;;;;4.82;88.52;101321.06;5120606;27;8840;-63
2022/01/22 02:38:51;;;;;;;;;10.80;7.40;;;;;4.82;88.43;101326.34;5109771;28;9572;-64
2022/01/22 02:41:21;;;;;;;;;5.20;5.20;;;;;4.82;88.59;101319.28;5109721;27;8832;-62
2022/01/22 02:43:49;;;;;;;;;7.40;6.40;;;;;4.82;88.58;101315.78;5110971;28;8864;-63
2022/01/22 02:46:18;;;;;;;;;9.60;9.00;;;;;4.82;88.50;101314.00;5112016;28;8838;-63
2022/01/22 02:48:46;;;;;;;;;9.20;7.00;;;;;4.82;88.38;101311.38;5110095;28;8835;-64
2022/01/22 02:51:14;;;;;;;;;8.20;8.20;;;;;4.84;88.94;101320.09;5110878;28;8840;-63
2022/01/22 02:53:42;;;;;;;;;4.00;4.00;;;;;4.84;88.87;101321.84;5128335;27;8853;-61
2022/01/22 02:56:10;;;;;;;;;7.40;5.60;;;;;4.84;89.04;101320.09;5130009;27;8854;-63
2022/01/22 02:58:37;;;;;;;;;7.40;7.40;;;;;4.84;88.94;101313.94;5131083;27;8863;-66
2022/01/22 03:01:05;;;;;;;;;13.00;10.80;;;;;4.85;88.46;101315.66;5112552;27;8831;-62
2022/01/22 03:03:33;;;;;;;;;9.60;9.40;;;;;4.85;88.68;101319.19;5109361;28;8862;-62
2022/01/22 03:06:02;;;;;;;;;6.40;6.40;;;;;4.86;88.92;101327.97;5109470;28;8840;-63
2022/01/22 03:08:31;;;;;;;;;8.80;8.80;;;;;4.87;88.91;101334.97;5109579;28;8839;-61
2022/01/22 03:11:01;;;;;;;;;12.60;10.80;;;;;4.87;88.75;101332.31;5125648;27;8861;-62
2022/01/22 03:16:45;;;;;;;;;12.00;11.20;;;;;4.88;88.93;101334.06;5071682;27;8867;-62
2022/01/22 03:19:27;;;;;;;;;8.20;7.80;;;;;4.88;88.58;101336.69;5128792;27;8878;-61
2022/01/22 03:22:01;;;;;;;;;9.60;8.20;;;;;4.87;88.49;101338.44;5109948;27;8824;-62
2022/01/22 03:27:21;;;;;;;;;9.20;7.00;;;;;4.87;88.98;101334.97;5110226;28;8890;-62
2022/01/22 03:29:50;;;;;;;;;12.40;9.40;;;;;4.86;89.36;101338.53;5115048;27;8838;-64
2022/01/22 03:32:18;;;;;;;;;11.60;9.20;;;;;4.86;89.47;101338.53;5130864;27;8918;-62
2022/01/22 03:34:55;;;;;;;;;14.20;9.20;;;;;4.86;89.17;101339.38;5130154;27;8829;-63
2022/01/22 03:37:23;;;;;;;;;8.40;6.00;;;;;4.85;88.98;101337.66;5130269;27;9529;-64
2022/01/22 03:39:51;;;;;;;;;9.20;8.80;;;;;4.85;88.91;101331.50;5125404;27;8883;-67
2022/01/22 03:42:19;;;;;;;;;8.60;6.80;;;;;4.86;89.22;101341.16;5109488;27;8820;-61
2022/01/22 03:44:47;;;;;;;;;14.80;12.00;;;;;4.86;89.17;101338.53;5111152;28;8928;-61
2022/01/22 03:47:14;;;;;;;;;10.80;10.20;;;;;4.86;89.26;101338.53;5109451;28;8859;-62
2022/01/22 03:49:42;;;;;;;;;2.60;1.00;;;;;4.85;88.90;101342.94;5112266;27;8948;-63
2022/01/22 03:52:10;;;;;;;;;12.80;9.20;;;;;4.86;89.32;101341.16;5128456;27;8825;-64
2022/01/22 03:54:38;;;;;;;;;7.00;6.60;;;;;4.86;88.89;101344.66;5129109;27;8849;-64
2022/01/22 03:57:06;;;;;;;;;15.20;11.60;;;;;4.87;88.46;101350.81;5129488;27;8850;-62
2022/01/22 03:59:34;;;;;;;;;7.00;6.00;;;;;4.87;88.66;101350.81;5127269;27;9665;-63
2022/01/22 04:02:46;;;;;;;;;9.00;7.00;;;;;4.88;88.96;101344.59;5109054;28;8854;-63
2022/01/22 04:05:08;;;;;;;;;1.00;0.40;;;;;4.90;89.07;101342.75;5108472;28;8866;-62
2022/01/22 04:10:24;;;;;;;;;7.60;7.00;;;;;4.91;88.63;101347.13;5109026;27;9056;-65
2022/01/22 04:13:00;;;;;;;;;12.00;10.00;;;;;4.92;88.87;101351.47;5109237;28;8889;-64
2022/01/22 04:15:32;;;;;;;;;6.60;6.40;;;;;4.93;88.93;101355.88;5108451;28;8852;-62
2022/01/22 04:26:24;;;;;;;;;6.40;5.60;;;;;4.94;88.82;101352.31;5128756;27;8865;-62
2022/01/22 04:28:52;;;;;;;;;6.80;6.40;;;;;4.93;88.79;101354.09;5130347;27;8857;-65
2022/01/22 04:31:20;;;;;;;;;3.40;2.20;;;;;4.94;88.85;101354.97;5128756;27;8946;-62
2022/01/22 04:33:48;;;;;;;;;6.20;6.00;;;;;4.94;88.68;101352.31;5129697;27;8910;-62
2022/01/22 04:36:16;;;;;;;;;9.20;8.60;;;;;4.96;88.91;101358.41;5125685;27;8848;-62
2022/01/22 04:38:44;;;;;;;;;7.00;6.00;;;;;4.97;88.99;101362.75;5108091;28;8844;-64
2022/01/22 04:41:12;;;;;;;;;6.00;6.00;;;;;4.98;88.61;101359.19;5107963;28;8916;-64
2022/01/22 04:43:41;;;;;;;;;7.00;7.00;;;;;4.99;88.86;101360.91;5108168;28;8858;-61
2022/01/22 04:46:18;;;;;;;;;9.60;7.00;;;;;5.01;88.52;101353.84;5108835;27;8839;-63
2022/01/22 04:49:06;;;;;;;;;6.40;6.40;;;;;5.01;88.63;101354.69;5128814;27;8842;-62
2022/01/22 04:57:04;;;;;;;;;4.00;3.20;;;;;5.04;88.82;101348.44;5118482;28;8859;-64
2022/01/22 04:59:31;;;;;;;;;4.80;4.00;;;;;5.04;88.86;101349.31;5108572;28;9579;-64
2022/01/22 05:01:59;;;;;;;;;8.60;8.20;;;;;5.04;88.45;101345.78;5107576;28;8836;-62
2022/01/22 05:04:27;;;;;;;;;7.80;7.80;;;;;5.05;88.73;101350.16;5108341;28;8840;-62
2022/01/22 05:06:55;;;;;;;;;9.00;8.20;;;;;5.05;88.76;101347.50;5115587;27;8906;-63
2022/01/22 05:09:23;;;;;;;;;7.80;6.80;;;;;5.07;88.73;101348.31;5128422;27;8840;-64
2022/01/22 05:11:50;;;;;;;;;6.60;6.00;;;;;5.09;88.50;101354.44;5128081;27;8859;-62
2022/01/22 05:14:18;;;;;;;;;7.80;7.00;;;;;5.09;89.03;101343.88;5129709;27;8852;-65
2022/01/22 05:16:46;;;;;;;;;6.00;5.20;;;;;5.10;88.78;101350.88;5122095;28;8832;-63
2022/01/22 05:19:19;;;;;;;;;8.60;7.00;;;;;5.11;88.39;101352.59;5106460;28;8863;-64
2022/01/22 05:21:49;;;;;;;;;7.00;5.60;;;;;5.12;89.04;101349.03;5107717;28;9735;-62
2022/01/22 05:24:21;;;;;;;;;10.40;9.20;;;;;5.12;88.83;101346.38;5106923;28;8893;-62
2022/01/22 05:27:15;;;;;;;;;7.40;6.20;;;;;5.11;88.92;101348.19;5112909;27;8845;-64
2022/01/22 05:32:36;;;;;;;;;9.40;8.60;;;;;5.14;88.90;101355.09;5128424;27;8842;-63
2022/01/22 05:37:49;;;;;;;;;7.40;7.00;;;;;5.15;88.97;101362.09;5114552;28;8824;-64
2022/01/22 05:40:17;;;;;;;;;7.60;6.40;;;;;5.14;88.89;101360.38;5106391;28;9650;-62
2022/01/22 05:42:45;;;;;;;;;8.20;8.20;;;;;5.15;88.98;101357.72;5108435;28;8848;-62
2022/01/22 05:45:13;;;;;;;;;10.40;8.60;;;;;5.15;89.09;101359.47;5108183;28;8896;-63
2022/01/22 05:47:41;;;;;;;;;6.80;6.80;;;;;5.16;88.98;101375.25;5120251;27;8860;-63
2022/01/22 05:50:14;;;;;;;;;6.20;4.40;;;;;5.17;88.74;101370.84;5128211;27;8845;-62
2022/01/22 05:52:53;;;;;;;;;7.00;6.00;;;;;5.17;89.14;101370.84;5131832;27;8845;-64
2022/01/22 06:00:52;;;;;;;;;6.80;5.00;;;;;5.19;88.88;101382.22;5110319;28;8858;-66
2022/01/22 06:03:20;;;;;;;;;7.00;6.60;;;;;5.19;88.79;101380.47;5110705;28;9489;-61
2022/01/22 06:05:48;;;;;;;;;1.40;1.40;;;;;5.20;88.77;101382.19;5123398;27;8856;-62
2022/01/22 06:08:17;;;;;;;;;9.60;9.60;;;;;5.21;89.02;101391.81;5131252;27;8856;-63
2022/01/22 06:10:46;;;;;;;;;9.20;7.00;;;;;5.22;89.35;101384.75;5131037;27;8852;-62
2022/01/22 06:13:16;;;;;;;;;9.40;7.20;;;;;5.22;89.04;101395.31;5115171;27;8852;-66
2022/01/22 06:15:44;;;;;;;;;7.80;7.00;;;;;5.23;88.92;101392.63;5109991;28;8843;-63
2022/01/22 06:18:12;;;;;;;;;7.80;6.40;;;;;5.24;88.98;101398.78;5109878;28;8916;-62
2022/01/22 06:20:40;;;;;;;;;7.00;6.60;;;;;5.25;88.79;101397.84;5109952;28;8843;-62
2022/01/22 06:23:08;;;;;;;;;5.60;4.60;;;;;5.25;88.70;101396.06;5123222;27;8932;-62
2022/01/22 06:25:36;;;;;;;;;4.40;4.40;;;;;5.28;88.73;101403.03;5130826;27;8853;-64
2022/01/22 06:28:03;;;;;;;;;8.20;6.80;;;;;5.28;88.90;101400.38;5130275;27;8877;-62
2022/01/22 06:30:32;;;;;;;;;5.60;5.00;;;;;5.30;88.39;101398.53;5130719;27;8857;-65
2022/01/22 06:32:59;;;;;;;;;7.00;6.60;;;;;5.31;89.06;101405.56;5116255;27;9605;-61
2022/01/22 06:35:27;;;;;;;;;5.60;4.80;;;;;5.31;89.27;101395.84;5111591;28;8842;-61
2022/01/22 06:37:59;;;;;;;;;3.00;3.00;;;;;5.31;88.57;101398.50;5110189;28;8843;-62
2022/01/22 06:43:23;;;;;;;;;6.20;4.40;;;;;5.33;88.75;101409.84;5049698;28;8850;-61
2022/01/22 06:45:51;;;;;;;;;3.60;3.60;;;;;5.34;88.30;101416.91;5091624;28;8859;-63
2022/01/22 06:48:18;;;;;;;;;6.20;6.00;;;;;5.34;88.43;101410.75;5107166;28;8866;-63
2022/01/22 06:50:46;;;;;;;;;11.20;9.80;;;;;5.37;88.56;101407.97;5109505;28;8866;-62
2022/01/22 06:53:14;;;;;;;;;8.20;6.40;;;;;5.36;89.08;101417.69;5123620;27;8836;-61
2022/01/22 06:55:45;;;;;;;;;6.80;6.80;;;;;5.38;88.87;101412.38;5130057;27;8845;-63
2022/01/22 06:58:12;;;;;;;;;5.60;5.60;;;;;5.38;88.92;101422.94;5130433;27;8858;-64
2022/01/22 07:00:40;;;;;;;;;7.00;6.60;;;;;5.39;88.64;101420.22;5128816;27;8822;-64
2022/01/22 07:03:08;;;;;;;;;9.20;7.00;;;;;5.40;88.83;101427.22;5114468;27;8836;-64
2022/01/22 07:05:36;;;;;;;;;12.40;9.00;;;;;5.41;88.90;101426.28;5108317;28;8847;-62
2022/01/22 07:08:04;;;;;;;;;9.40;8.60;;;;;5.41;88.79;101422.81;5108899;28;8904;-64
2022/01/22 07:10:32;;;;;;;;;6.60;6.60;;;;;5.42;88.72;101425.41;5108012;28;8855;-64
2022/01/22 07:12:59;;;;;;;;;6.60;6.60;;;;;5.43;89.12;101421.84;5120154;27;8834;-64
2022/01/22 07:15:28;;;;;;;;;8.60;7.20;;;;;5.44;88.78;101428.84;5127739;27;8956;-62
2022/01/22 07:17:56;;;;;;;;;10.00;9.80;;;;;5.45;88.62;101434.97;5130181;27;8825;-64
2022/01/22 07:20:28;;;;;;;;;12.00;7.40;;;;;5.46;88.75;101436.72;5128950;27;9753;-63
2022/01/22 07:23:01;;;;;;;;;8.20;7.40;;;;;5.47;88.78;101441.09;5116458;27;8832;-64
2022/01/22 07:25:29;;;;;;;;;6.20;5.20;;;;;5.47;88.75;101441.09;5108287;28;8852;-64
2022/01/22 07:27:57;;;;;;;;;9.80;7.00;;;;;5.48;88.67;101445.47;5108698;28;8844;-64
2022/01/22 07:30:27;;;;;;;;;9.20;8.20;;;;;5.49;88.69;101449.81;5109091;28;8863;-64
2022/01/22 07:32:55;;;;;;;;;8.80;8.80;;;;;5.50;88.61;101454.19;5118767;27;8836;-61
2022/01/22 07:35:22;;;;;;;;;10.40;10.00;;;;;5.50;88.66;101449.78;5127777;27;8854;-62
2022/01/22 07:37:50;;;;;;;;;8.80;8.20;;;;;5.51;88.75;101456.78;5127661;27;8973;-64
2022/01/22 07:40:18;;;;;;;;;4.00;4.00;;;;;5.53;88.87;101454.09;5127537;27;9518;-62
2022/01/22 07:42:46;;;;;;;;;13.40;12.40;;;;;5.53;88.68;101462.03;5117890;27;9671;-62
2022/01/22 07:45:13;;;;;;;;;6.00;6.00;;;;;5.56;88.79;101459.25;5106791;28;8867;-64
2022/01/22 07:47:41;;;;;;;;;9.20;8.60;;;;;5.57;88.66;101464.50;5107214;28;8970;-63
2022/01/22 07:50:09;;;;;;;;;6.40;6.40;;;;;5.59;88.84;101467.06;5107239;28;8839;-64
2022/01/22 07:52:37;;;;;;;;;6.00;6.00;;;;;5.58;89.01;101466.22;5115281;27;8840;-64
2022/01/22 07:55:04;;;;;;;;;7.40;7.40;;;;;5.60;88.70;101468.78;5115127;27;8844;-64
2022/01/22 07:57:33;;;;;;;;;7.40;6.20;;;;;5.61;89.22;101470.53;5106722;28;9774;-64
2022/01/22 08:00:00;;;;;;;;;4.40;4.00;;;;;5.61;88.83;101463.47;5107342;28;8877;-63
2022/01/22 08:02:31;;;;;;;;;3.40;3.40;;;;;5.63;88.52;101460.78;5112999;27;9479;-61
2022/01/22 08:04:58;;;;;;;;;7.00;7.00;;;;;5.63;88.67;101460.78;5128569;27;8960;-63
2022/01/22 08:07:26;;;;;;;;;6.40;6.40;;;;;5.65;88.53;101464.22;5127816;27;8922;-60
2022/01/22 08:09:54;;;;;;;;;4.80;4.00;;;;;5.65;88.75;101465.09;5126395;27;8938;-64
2022/01/22 08:12:22;;;;;;;;;4.00;3.60;;;;;5.65;88.29;101462.44;5120736;27;8840;-64
2022/01/22 08:14:49;;;;;;;;;2.00;2.00;;;;;5.67;89.11;101460.59;5106541;28;8836;-64
2022/01/22 08:17:17;;;;;;;;;6.00;5.60;;;;;5.70;88.66;101454.34;5105599;28;8866;-63
2022/01/22 08:19:46;;;;;;;;;6.00;5.20;;;;;5.74;88.63;101464.75;5105476;28;9537;-64
2022/01/22 08:22:14;;;;;;;;;4.20;2.60;;;;;5.77;88.97;101463.78;5109177;27;8856;-63
2022/01/22 08:24:42;;;;;;;;;6.60;6.00;;;;;5.78;89.10;101462.88;5126656;27;8852;-63
2022/01/22 08:27:16;;;;;;;;;5.60;4.60;;;;;5.80;88.45;101461.94;5126026;27;8926;-63
2022/01/22 08:29:44;;;;;;;;;7.40;6.20;;;;;5.79;88.39;101456.66;5124076;27;8885;-63
2022/01/22 08:32:31;;;;;;;;;7.80;6.00;;;;;5.79;88.45;101459.31;5123880;27;8824;-64
2022/01/22 08:37:49;;;;;;;;;6.20;6.00;;;;;5.83;88.60;101474.16;5108589;27;8954;-63
2022/01/22 08:40:17;;;;;;;;;6.00;5.60;;;;;5.83;88.91;101479.44;5125692;27;8893;-61
2022/01/22 08:42:45;;;;;;;;;4.00;0.00;;;;;5.83;88.61;101474.16;5119157;28;8839;-63
2022/01/22 08:45:13;;;;;;;;;3.00;3.00;;;;;5.84;88.78;101475.91;5105851;28;8880;-63
2022/01/22 08:47:41;;;;;;;;;6.40;4.40;;;;;5.87;88.69;101474.00;5104512;28;8859;-62
2022/01/22 08:50:09;;;;;;;;;4.40;4.00;;;;;5.91;88.41;101482.69;5104550;28;8862;-64
2022/01/22 08:52:36;;;;;;;;;5.60;5.60;;;;;5.94;88.73;101472.00;5111195;27;8829;-63
2022/01/22 08:55:04;;;;;;;;;3.20;3.20;;;;;5.95;88.12;101479.88;5125164;27;8950;-63
2022/01/22 08:57:32;;;;;;;;;3.60;3.40;;;;;5.96;88.43;101471.03;5124423;27;8834;-63
2022/01/22 09:00:00;;;;;;;;;3.00;3.00;;;;;5.97;88.25;101482.44;5127185;27;8949;-64
2022/01/22 09:02:28;;;;;;;;;4.80;4.00;;;;;5.98;88.19;101476.25;5120337;28;8844;-63
2022/01/22 09:04:56;;;;;;;;;7.00;6.40;;;;;5.99;88.41;101475.34;5106851;28;9756;-64
2022/01/22 09:07:24;;;;;;;;;6.20;5.60;;;;;6.01;88.62;101479.63;5109862;28;8979;-64
2022/01/22 09:09:52;;;;;;;;;7.80;6.40;;;;;6.03;88.50;101471.66;5105054;28;8843;-63
2022/01/22 09:12:19;;;;;;;;;2.60;2.60;;;;;6.06;88.47;101474.22;5106533;28;8847;-62
2022/01/22 09:14:47;;;;;;;;;7.00;6.40;;;;;6.09;88.54;101484.66;5108704;28;8828;-64
2022/01/22 09:17:15;;;;;;;;;6.40;6.00;;;;;6.11;87.83;101485.47;5104870;28;8852;-64
2022/01/22 09:19:46;;;;;;;;;5.60;4.40;;;;;6.12;88.13;101484.53;5105596;28;8863;-63
2022/01/22 09:22:14;;;;;;;;;7.20;6.00;;;;;6.13;87.80;101486.25;5104694;28;8840;-67
2022/01/22 09:24:42;;;;;;;;;5.20;4.80;;;;;6.14;88.23;101490.66;5117175;27;8884;-63
2022/01/22 09:27:12;;;;;;;;;8.60;7.20;;;;;6.15;87.90;101492.38;5130010;27;8872;-61
2022/01/22 09:29:40;;;;;;;;;9.00;8.60;;;;;6.23;87.86;101485.88;5131029;27;8853;-64
2022/01/22 09:32:07;;;;;;;;;6.40;4.00;;;;;6.28;88.09;101486.56;5129965;27;8849;-64
2022/01/22 09:34:35;;;;;;;;;7.20;5.20;;;;;6.33;87.90;101494.31;5120890;27;9513;-64
2022/01/22 09:37:03;;;;;;;;;7.00;6.00;;;;;6.38;88.28;101495.03;5107472;28;8852;-62
2022/01/22 09:39:31;;;;;;;;;9.60;9.00;;;;;6.42;87.79;101507.19;5109012;28;8855;-63
2022/01/22 09:41:58;;;;;;;;;10.20;8.00;;;;;6.42;87.69;101500.13;5108103;28;8863;-64
2022/01/22 09:44:31;;;;;;;;;9.20;9.00;;;;;6.43;87.56;101508.91;5125307;27;8976;-64
2022/01/22 09:47:01;;;;;;;;;5.60;4.00;;;;;6.40;87.95;101502.00;5128276;27;8837;-66
2022/01/22 09:49:28;;;;;;;;;7.20;6.20;;;;;6.38;87.82;101505.59;5123952;27;8927;-63
2022/01/22 09:51:56;;;;;;;;;12.20;11.20;;;;;6.35;88.04;101521.56;5131989;27;8853;-64
2022/01/22 09:54:24;;;;;;;;;6.40;5.60;;;;;6.33;88.06;101519.00;5112467;27;8852;-63
2022/01/22 09:56:52;;;;;;;;;9.20;9.00;;;;;6.32;87.85;101522.56;5108550;28;8840;-66
2022/01/22 09:59:19;;;;;;;;;6.40;4.40;;;;;6.31;88.00;101520.81;5107922;28;8878;-61
2022/01/22 10:01:48;;;;;;;;;7.60;7.60;;;;;6.31;88.26;101530.56;5107809;28;8869;-63
2022/01/22 10:04:16;;;;;;;;;7.00;6.00;;;;;6.31;88.21;101519.97;5107668;28;8844;-62
2022/01/22 10:06:44;;;;;;;;;10.00;9.60;;;;;6.33;88.29;101520.78;5127097;27;8822;-64
2022/01/22 10:09:14;;;;;;;;;13.00;12.00;;;;;6.32;88.00;101519.06;5127924;27;8859;-64
2022/01/22 10:11:42;;;;;;;;;12.00;10.80;;;;;6.32;88.32;101530.50;5114118;27;8962;-61
2022/01/22 10:14:10;;;;;;;;;10.00;9.00;;;;;6.32;88.56;101525.22;5110299;27;9624;-63
2022/01/22 10:16:37;;;;;;;;;11.20;10.00;;;;;6.34;87.96;101525.16;5127734;27;8834;-62
2022/01/22 10:19:05;;;;;;;;;7.60;7.60;;;;;6.35;88.12;101524.22;5112717;27;8863;-64
2022/01/22 10:21:34;;;;;;;;;9.40;8.80;;;;;6.36;88.20;101521.53;5107140;28;8844;-66
2022/01/22 10:24:02;;;;;;;;;12.00;10.00;;;;;6.37;87.91;101520.59;5107630;28;8844;-63
2022/01/22 10:26:30;;;;;;;;;8.20;6.80;;;;;6.36;88.00;101513.59;5106661;28;8843;-64
2022/01/22 10:29:01;;;;;;;;;8.60;7.80;;;;;6.36;88.22;101518.03;5120057;27;8869;-61
2022/01/22 10:31:30;;;;;;;;;7.00;7.00;;;;;6.36;88.08;101512.75;5113442;27;8861;-63
2022/01/22 10:33:58;;;;;;;;;5.20;5.20;;;;;6.35;88.08;101505.69;5125511;27;8846;-63
2022/01/22 10:36:26;;;;;;;;;8.60;7.80;;;;;6.36;88.06;101525.97;5126180;27;8871;-63
2022/01/22 10:38:53;;;;;;;;;5.80;5.20;;;;;6.34;88.28;101515.44;5113625;27;8832;-63
2022/01/22 10:41:24;;;;;;;;;8.60;6.20;;;;;6.33;88.07;101526.06;5106131;28;8856;-63
2022/01/22 10:43:53;;;;;;;;;7.40;6.60;;;;;6.32;88.22;101524.34;5106117;28;8966;-64
2022/01/22 10:46:30;;;;;;;;;8.20;7.00;;;;;6.31;88.18;101527.91;5104840;28;9493;-64
2022/01/22 10:48:58;;;;;;;;;4.80;4.80;;;;;6.31;88.42;101526.13;5119477;27;8837;-64
2022/01/22 10:51:27;;;;;;;;;5.20;5.20;;;;;6.32;88.44;101527.88;5126066;27;8884;-62
2022/01/22 10:53:56;;;;;;;;;4.00;1.40;;;;;6.35;88.30;101542.75;5125650;27;8898;-67
2022/01/22 10:56:24;;;;;;;;;5.20;4.60;;;;;6.38;88.30;101540.00;5107910;27;8940;-64
2022/01/22 10:58:52;;;;;;;;;4.00;3.60;;;;;6.40;88.30;101535.50;5102291;28;8878;-64
2022/01/22 11:01:20;;;;;;;;;4.00;4.00;;;;;6.42;88.16;101533.66;5105743;28;8932;-66
2022/01/22 11:03:53;;;;;;;;;6.00;6.00;;;;;6.44;88.01;101539.78;5105726;28;8840;-64
2022/01/22 11:06:21;;;;;;;;;4.00;4.00;;;;;6.48;88.27;101533.44;5120353;27;8910;-64
2022/01/22 11:08:48;;;;;;;;;4.00;3.00;;;;;6.50;88.13;101536.88;5107269;27;8859;-65
2022/01/22 11:11:16;;;;;;;;;1.80;0.80;;;;;6.53;88.00;101540.28;5105917;28;8848;-62
2022/01/22 11:13:47;;;;;;;;;7.80;7.00;;;;;6.54;88.04;101534.06;5103966;28;8847;-64
2022/01/22 11:16:14;;;;;;;;;3.20;3.00;;;;;6.55;87.63;101533.16;5119221;27;8836;-63
2022/01/22 11:19:02;;;;;;;;;6.60;5.60;;;;;6.52;88.19;101527.97;5125863;27;8883;-64
2022/01/22 11:21:30;;;;;;;;;4.00;3.40;;;;;6.51;88.27;101528.88;5125966;27;9000;-64
2022/01/22 11:23:58;;;;;;;;;4.80;3.60;;;;;6.51;88.24;101543.91;5124691;27;8853;-63
2022/01/22 11:26:26;;;;;;;;;2.20;2.20;;;;;6.50;88.07;101534.22;5115617;27;8847;-62
2022/01/22 11:28:53;;;;;;;;;6.00;4.00;;;;;6.50;88.19;101531.59;5125287;27;9592;-62
2022/01/22 11:31:21;;;;;;;;;4.00;3.00;;;;;6.49;87.86;101535.16;5128020;27;9522;-62
2022/01/22 11:33:48;;;;;;;;;3.00;3.00;;;;;6.50;88.37;101526.28;5126652;27;8861;-64
2022/01/22 11:36:17;;;;;;;;;4.00;4.00;;;;;6.54;88.17;101530.56;5108663;27;8851;-63
2022/01/22 11:38:44;;;;;;;;;6.00;4.80;;;;;6.57;87.99;101531.31;5102446;28;8836;-64
2022/01/22 11:41:13;;;;;;;;;7.40;6.80;;;;;6.60;88.06;101535.63;5102557;28;8866;-64
2022/01/22 11:43:44;;;;;;;;;6.40;5.60;;;;;6.63;87.53;101535.50;5103987;28;8854;-64
2022/01/22 11:46:12;;;;;;;;;4.60;4.60;;;;;6.67;88.15;101537.13;5117128;27;8834;-64
2022/01/22 11:48:40;;;;;;;;;3.20;3.20;;;;;6.71;87.98;101541.38;5123929;27;8854;-63
2022/01/22 11:51:08;;;;;;;;;4.80;4.80;;;;;6.76;87.75;101542.06;5127434;27;8834;-63
2022/01/22 11:53:37;;;;;;;;;10.40;8.60;;;;;6.84;87.66;101537.34;5128365;27;8870;-64
2022/01/22 11:56:07;;;;;;;;;8.20;8.20;;;;;6.94;87.89;101530.75;5098028;27;8940;-64
2022/01/22 11:58:35;;;;;;;;;6.00;4.40;;;;;7.10;87.59;101527.44;5089657;28;8844;-64
2022/01/22 12:01:02;;;;;;;;;7.00;6.80;;;;;7.21;87.09;101527.84;5102512;28;8847;-64
2022/01/22 12:03:30;;;;;;;;;7.50;6.50;;;;;7.26;86.83;101523.22;5105676;28;8951;-64
2022/01/22 12:06:18;;;;;;;;;9.75;8.50;;;;;7.25;86.80;101523.28;5120425;27;8858;-62
2022/01/22 12:08:46;;;;;;;;;13.60;11.60;;;;;7.19;87.08;101524.41;5126076;27;8964;-63
2022/01/22 12:16:45;;;;;;;;;10.40;9.40;;;;;6.94;87.90;101506.91;5109078;27;8856;-64
2022/01/22 12:19:14;;;;;;;;;9.80;8.60;;;;;6.90;87.18;101515.91;5105760;28;8860;-63
2022/01/22 12:21:41;;;;;;;;;14.40;9.20;;;;;6.85;87.49;101517.88;5105950;28;8861;-64
2022/01/22 12:24:09;;;;;;;;;8.00;5.20;;;;;6.83;87.94;101515.28;5104365;28;8904;-64
2022/01/22 12:26:37;;;;;;;;;10.40;10.20;;;;;6.84;87.73;101519.63;5121663;27;8865;-62
2022/01/22 12:29:05;;;;;;;;;7.00;6.80;;;;;6.84;87.83;101510.84;5125484;27;8931;-63
2022/01/22 12:31:32;;;;;;;;;6.00;6.00;;;;;6.84;87.38;101513.50;5124714;27;8891;-63
2022/01/22 12:34:02;;;;;;;;;8.00;6.20;;;;;6.86;87.74;101504.59;5126402;27;8842;-62
2022/01/22 12:36:32;;;;;;;;;7.25;6.25;;;;;6.90;88.08;101515.91;5108954;27;8816;-61
2022/01/22 12:39:01;;;;;;;;;7.80;6.20;;;;;6.91;88.13;101513.19;5105355;28;8848;-63
2022/01/22 12:41:35;;;;;;;;;7.00;6.00;;;;;6.91;87.71;101518.47;5103295;28;8880;-64
2022/01/22 12:44:04;;;;;;;;;9.80;9.40;;;;;6.90;87.91;101511.47;5122574;27;8833;-64
2022/01/22 12:46:48;;;;;;;;;5.20;5.20;;;;;6.90;87.81;101515.91;5124128;27;8857;-62
2022/01/22 12:49:16;;;;;;;;;8.20;6.00;;;;;6.87;87.92;101508.94;5123555;27;8850;-62
2022/01/22 12:51:44;;;;;;;;;4.80;4.60;;;;;6.83;87.98;101509.97;5125411;27;8871;-62
2022/01/22 12:54:12;;;;;;;;;7.80;6.40;;;;;6.79;88.44;101511.03;5116633;28;8828;-65
2022/01/22 12:56:59;;;;;;;;;8.80;8.80;;;;;6.76;88.19;101510.28;5106664;28;8828;-64
2022/01/22 12:59:27;;;;;;;;;5.60;4.80;;;;;6.71;87.69;101520.19;5101212;28;8848;-62